createdAt,value
2023-01-10T10:10:52.940Z,4.65
2023-01-10T10:16:10.366Z,4.64
2023-01-10T10:21:25.987Z,4.61
2023-01-10T10:26:36.708Z,4.57
2023-01-10T10:32:12.959Z,4.64
2023-01-10T10:37:25.589Z,4.68
2023-01-10T10:42:35.991Z,4.56
2023-01-10T10:47:43.627Z,4.61
2023-01-10T10:52:48.931Z,4.57
2023-01-10T10:58:00.229Z,4.60
2023-01-10T11:03:15.299Z,4.65
2023-01-10T11:08:21.740Z,4.68
2023-01-10T11:13:43.369Z,4.71
2023-01-10T11:19:03.920Z,4.60
2023-01-10T11:24:24.462Z,4.70
2023-01-10T11:29:40.327Z,4.69
2023-01-10T11:34:53.887Z,4.71
2023-01-10T11:40:26.906Z,4.76
2023-01-10T11:45:36.344Z,4.75
2023-01-10T11:50:46.745Z,4.70
2023-01-10T11:55:52.391Z,4.60
2023-01-10T12:00:59.016Z,4.63
2023-01-10T12:06:08.536Z,4.53
2023-01-10T12:11:32.065Z,4.50
2023-01-10T12:16:39.434Z,4.54
2023-01-10T12:21:46.456Z,4.55
2023-01-10T12:26:53.932Z,4.50
2023-01-10T12:32:01.908Z,4.56
2023-01-10T12:37:17.209Z,4.54
2023-01-10T12:42:49.024Z,4.58
2023-01-10T12:48:04.459Z,4.55
2023-01-10T12:53:20.204Z,4.53
2023-01-10T12:58:37.045Z,4.48
2023-01-10T13:03:45.451Z,4.48
2023-01-10T13:08:50.671Z,4.53
2023-01-10T13:14:02.104Z,4.55
2023-01-10T13:19:28.508Z,4.48
2023-01-10T13:24:34.222Z,4.56
2023-01-10T13:29:42.985Z,4.50
2023-01-10T13:34:49.122Z,4.41
2023-01-10T13:39:57.202Z,4.44
2023-01-10T13:45:25.150Z,4.42
2023-01-10T13:51:18.935Z,4.43
2023-01-10T13:56:47.473Z,4.49
2023-01-10T14:02:12.174Z,4.48
2023-01-10T14:07:28.440Z,4.50
2023-01-10T14:12:39.640Z,4.49
2023-01-10T14:17:44.338Z,4.49
2023-01-10T14:23:07.721Z,4.48
2023-01-10T14:28:24.817Z,4.47
2023-01-10T14:33:30.339Z,4.53
2023-01-10T14:38:39.524Z,4.46
2023-01-10T14:43:51.314Z,4.43
2023-01-10T14:49:00.663Z,4.45
2023-01-10T14:54:14.277Z,4.41
2023-01-10T14:59:25.679Z,4.45
2023-01-10T15:04:33.686Z,4.50
2023-01-10T15:09:40.136Z,4.50
2023-01-10T15:14:45.143Z,4.50
2023-01-10T15:19:53.662Z,4.51
2023-01-10T15:25:06.382Z,4.52
2023-01-10T15:30:13.631Z,4.52
2023-01-10T15:35:23.802Z,4.53
2023-01-10T15:40:35.300Z,4.53
2023-01-10T15:45:40.133Z,4.46
2023-01-10T15:50:59.831Z,4.50
2023-01-10T15:56:18.940Z,4.48
2023-01-10T16:01:23.585Z,4.45
2023-01-10T16:06:32.044Z,4.42
2023-01-10T16:12:00.522Z,4.40
2023-01-10T16:17:05.861Z,4.44
2023-01-10T16:22:17.348Z,4.52
2023-01-10T16:27:23.007Z,4.49
2023-01-10T16:32:27.705Z,4.45
2023-01-10T16:37:33.290Z,4.48
2023-01-10T16:42:56.477Z,4.44
2023-01-10T16:48:01.366Z,4.50
2023-01-10T16:53:06.418Z,4.49
2023-01-10T16:58:14.623Z,4.51
2023-01-10T17:03:22.576Z,4.42
2023-01-10T17:08:26.969Z,4.50
2023-01-10T17:13:36.648Z,4.44
2023-01-10T17:18:41.235Z,4.49
2023-01-10T17:23:46.285Z,4.43
2023-01-10T17:28:51.893Z,4.43
2023-01-10T17:33:56.559Z,4.37
2023-01-10T17:39:01.392Z,4.39
2023-01-10T17:44:07.449Z,4.37
2023-01-10T17:49:13.355Z,4.33
2023-01-10T17:54:17.893Z,4.35
2023-01-10T17:59:23.606Z,4.43
2023-01-10T18:04:28.200Z,4.40
2023-01-10T18:09:32.639Z,4.48
2023-01-10T18:14:38.882Z,4.47
2023-01-10T18:19:43.288Z,4.42
2023-01-10T18:24:47.619Z,4.44
2023-01-10T18:29:54.198Z,4.49
2023-01-10T18:34:59.892Z,4.41
2023-01-10T18:40:05.542Z,4.43
2023-01-10T18:45:11.796Z,4.41
2023-01-10T18:50:16.412Z,4.32
2023-01-10T18:55:21.015Z,4.28
2023-01-10T19:00:27.720Z,4.23
2023-01-10T19:05:32.181Z,4.24
2023-01-10T19:10:57.337Z,4.20
2023-01-10T19:16:15.850Z,4.17
2023-01-10T19:21:21.252Z,4.13
2023-01-10T19:26:26.412Z,4.18
2023-01-10T19:31:32.739Z,4.21
2023-01-10T19:36:38.700Z,4.19
2023-01-10T19:41:43.968Z,4.22
2023-01-10T19:46:50.412Z,4.22
2023-01-10T19:51:56.082Z,4.26
2023-01-10T19:57:01.520Z,4.24
2023-01-10T20:02:07.511Z,4.18
2023-01-10T20:07:11.690Z,4.21
2023-01-10T20:12:16.244Z,4.13
2023-01-10T20:17:22.617Z,4.14
2023-01-10T20:22:27.168Z,4.12
2023-01-10T20:27:31.583Z,4.05
2023-01-10T20:32:37.269Z,4.11
2023-01-10T20:37:41.761Z,4.10
2023-01-10T20:42:50.425Z,4.15
2023-01-10T20:47:56.472Z,4.09
2023-01-10T20:53:00.846Z,4.10
2023-01-10T20:58:05.910Z,4.04
2023-01-10T21:03:11.292Z,4.03
2023-01-10T21:08:15.660Z,4.05
2023-01-10T21:13:20.333Z,4.12
2023-01-10T21:18:32.573Z,4.21
2023-01-10T21:23:37.703Z,4.19
2023-01-10T21:28:43.841Z,4.30
2023-01-10T21:33:50.319Z,4.29
2023-01-10T21:38:55.008Z,4.28
2023-01-10T21:43:59.596Z,4.27
2023-01-10T21:49:06.295Z,4.28
2023-01-10T21:54:10.775Z,4.30
2023-01-10T21:59:15.084Z,4.26
2023-01-10T22:04:21.141Z,4.33
2023-01-10T22:09:25.919Z,4.41
2023-01-10T22:14:30.654Z,4.42
2023-01-10T22:19:36.644Z,4.44
2023-01-10T22:24:44.358Z,4.50
2023-01-10T22:29:48.914Z,4.42
2023-01-10T22:34:54.840Z,4.45
2023-01-10T22:39:59.351Z,4.41
2023-01-10T22:45:03.780Z,4.40
2023-01-10T22:50:11.247Z,4.43
2023-01-10T22:55:16.180Z,4.46
2023-01-10T23:00:21.689Z,4.44
2023-01-10T23:05:27.677Z,4.51
2023-01-10T23:10:32.401Z,4.42
2023-01-10T23:15:37.152Z,4.44
2023-01-10T23:20:42.968Z,4.37
2023-01-10T23:26:01.291Z,4.36
2023-01-10T23:31:08.121Z,4.34
2023-01-10T23:36:14.411Z,4.41
2023-01-10T23:41:21.187Z,4.40
2023-01-10T23:46:25.697Z,4.42
2023-01-10T23:51:31.519Z,4.36
2023-01-10T23:56:35.975Z,4.43
